Time;durP1;ratioP1;P1;durP2;ratioP2;P2;SDS_P1;SDS_P2;PMS_P1;PMS_P2;Temp;Humidity;BMP_temperature;BMP_pressure;BME280_temperature;BME280_humidity;BME280_pressure;Samples;Min_cycle;Max_cycle;Signal;HPM_P1;HPM_P2
2022/01/15 00:01:48;;;;;;;;;;;19.80;27.90;;;;;;492766;242;1172;-76
2022/01/15 00:03:50;;;;;;;;;;;19.90;27.70;;;;;;492902;242;1108;-76
2022/01/15 00:05:51;;;;;;;;;;;19.80;27.80;;;;;;492918;241;1525;-76
2022/01/15 00:07:53;;;;;;;;;;;19.90;27.80;;;;;;492889;242;1153;-76
2022/01/15 00:09:54;;;;;;;;;;;19.90;27.70;;;;;;492974;241;1020;-75
2022/01/15 00:11:55;;;;;;;;;;;19.80;27.70;;;;;;492916;242;1062;-76
2022/01/15 00:14:08;;;;;;;;;;;20.00;27.50;;;;;;493001;241;1025;-76
2022/01/15 00:16:05;;;;;;;;;;;20.00;27.50;;;;;;492015;242;2120;-76
2022/01/15 00:18:10;;;;;;;;;;;19.90;27.60;;;;;;492835;242;1454;-75
2022/01/15 00:20:06;;;;;;;;;;;19.90;27.60;;;;;;492580;242;1487;-76
2022/01/15 00:22:07;;;;;;;;;;;19.80;27.70;;;;;;492823;242;1397;-76
2022/01/15 00:24:09;;;;;;;;;;;19.80;27.70;;;;;;492914;242;1184;-76
2022/01/15 00:26:10;;;;;;;;;;;19.90;27.60;;;;;;492924;241;1144;-76
2022/01/15 00:28:11;;;;;;;;;;;19.80;27.70;;;;;;492884;242;1173;-76
2022/01/15 00:30:13;;;;;;;;;;;19.90;27.50;;;;;;492909;242;977;-76
2022/01/15 00:32:14;;;;;;;;;;;19.90;27.60;;;;;;492811;242;1316;-76
2022/01/15 00:34:15;;;;;;;;;;;20.10;27.40;;;;;;492886;241;1039;-76
2022/01/15 00:36:17;;;;;;;;;;;20.10;27.40;;;;;;492833;242;2183;-76
2022/01/15 00:38:18;;;;;;;;;;;19.90;27.30;;;;;;492943;241;1146;-76
2022/01/15 00:40:19;;;;;;;;;;;19.90;27.50;;;;;;492864;242;1068;-76
2022/01/15 00:42:21;;;;;;;;;;;19.70;27.60;;;;;;492860;242;1141;-76
2022/01/15 00:44:22;;;;;;;;;;;19.90;27.60;;;;;;492893;242;1080;-76
2022/01/15 00:46:23;;;;;;;;;;;19.70;27.50;;;;;;492755;241;1188;-76
2022/01/15 00:48:25;;;;;;;;;;;19.80;27.50;;;;;;493109;241;1061;-76
2022/01/15 00:50:26;;;;;;;;;;;19.90;27.40;;;;;;492827;242;984;-75
2022/01/15 00:52:27;;;;;;;;;;;20.00;27.30;;;;;;492835;241;1121;-76
2022/01/15 00:54:29;;;;;;;;;;;20.10;27.30;;;;;;492982;242;1036;-76
2022/01/15 00:56:30;;;;;;;;;;;20.00;27.30;;;;;;492758;242;2124;-76
2022/01/15 00:58:31;;;;;;;;;;;20.00;27.30;;;;;;492929;241;980;-76
2022/01/15 01:00:33;;;;;;;;;;;19.80;27.30;;;;;;492875;241;1227;-76
2022/01/15 01:02:34;;;;;;;;;;;20.20;27.00;;;;;;492905;241;1201;-76
2022/01/15 01:04:35;;;;;;;;;;;19.90;27.30;;;;;;492994;242;1252;-76
2022/01/15 01:06:37;;;;;;;;;;;19.90;27.30;;;;;;492759;241;1173;-76
2022/01/15 01:08:38;;;;;;;;;;;19.90;27.30;;;;;;492922;241;1055;-76
2022/01/15 01:10:52;;;;;;;;;;;20.10;27.20;;;;;;492921;241;1209;-76
2022/01/15 01:13:14;;;;;;;;;;;20.20;27.00;;;;;;492846;242;1388;-76
2022/01/15 01:24:20;;;;;;;;;;;19.90;27.20;;;;;;492253;242;1424;-76
2022/01/15 01:26:29;;;;;;;;;;;19.90;27.30;;;;;;492825;242;1235;-76
2022/01/15 01:28:31;;;;;;;;;;;19.90;27.20;;;;;;492585;242;1646;-75
2022/01/15 01:30:33;;;;;;;;;;;20.10;27.10;;;;;;492521;242;1400;-76
2022/01/15 01:32:41;;;;;;;;;;;20.10;27.10;;;;;;492492;242;1506;-76
2022/01/15 01:34:38;;;;;;;;;;;20.30;26.90;;;;;;492340;242;1467;-76
2022/01/15 01:36:44;;;;;;;;;;;20.10;27.00;;;;;;492644;241;2446;-76
2022/01/15 01:38:46;;;;;;;;;;;20.00;27.00;;;;;;492438;242;1437;-76
2022/01/15 01:40:42;;;;;;;;;;;20.00;27.10;;;;;;492426;242;1406;-76
2022/01/15 01:42:52;;;;;;;;;;;19.90;27.10;;;;;;492937;242;1379;-76
2022/01/15 01:44:44;;;;;;;;;;;19.80;27.20;;;;;;492285;242;1430;-75
2022/01/15 01:46:50;;;;;;;;;;;19.70;27.30;;;;;;492844;242;1232;-76
2022/01/15 01:48:46;;;;;;;;;;;19.70;27.30;;;;;;492606;241;1465;-76
2022/01/15 01:50:48;;;;;;;;;;;19.80;27.20;;;;;;492891;242;1272;-76
2022/01/15 01:52:49;;;;;;;;;;;20.00;27.00;;;;;;492864;241;1002;-76
2022/01/15 01:54:50;;;;;;;;;;;20.00;27.00;;;;;;492942;242;1146;-76
2022/01/15 01:56:52;;;;;;;;;;;19.90;27.00;;;;;;492822;241;2196;-76
2022/01/15 01:58:53;;;;;;;;;;;19.90;27.00;;;;;;493062;241;1015;-76
2022/01/15 02:00:54;;;;;;;;;;;19.90;27.10;;;;;;492885;242;1208;-76
2022/01/15 02:02:56;;;;;;;;;;;19.80;27.00;;;;;;492963;241;1098;-76
2022/01/15 02:04:58;;;;;;;;;;;19.80;27.00;;;;;;492913;242;1142;-76
2022/01/15 02:06:59;;;;;;;;;;;19.80;27.10;;;;;;492862;241;1171;-76
2022/01/15 02:09:00;;;;;;;;;;;19.80;27.00;;;;;;492926;242;1113;-76
2022/01/15 02:11:03;;;;;;;;;;;20.00;26.90;;;;;;492998;241;1201;-76
2022/01/15 02:13:08;;;;;;;;;;;20.10;26.80;;;;;;492854;242;1180;-76
2022/01/15 02:15:05;;;;;;;;;;;20.20;26.80;;;;;;492617;241;1257;-76
2022/01/15 02:17:06;;;;;;;;;;;20.10;26.80;;;;;;492788;242;2202;-76
2022/01/15 02:19:08;;;;;;;;;;;19.90;26.80;;;;;;492934;241;1216;-76
2022/01/15 02:23:35;;;;;;;;;;;19.80;27.00;;;;;;492960;242;1022;-76
2022/01/15 02:25:35;;;;;;;;;;;19.70;27.00;;;;;;492799;242;1523;-76
2022/01/15 02:27:37;;;;;;;;;;;20.10;26.90;;;;;;492956;242;1157;-76
2022/01/15 02:29:38;;;;;;;;;;;20.10;26.70;;;;;;492889;242;984;-76
2022/01/15 02:31:39;;;;;;;;;;;20.10;26.70;;;;;;492934;241;1186;-76
2022/01/15 02:33:41;;;;;;;;;;;20.10;26.70;;;;;;492887;242;1124;-76
2022/01/15 02:35:42;;;;;;;;;;;20.10;26.60;;;;;;492899;241;1120;-76
2022/01/15 02:37:43;;;;;;;;;;;20.00;26.70;;;;;;492902;242;2128;-76
2022/01/15 02:39:45;;;;;;;;;;;19.80;26.80;;;;;;492955;241;1092;-76
2022/01/15 02:41:46;;;;;;;;;;;19.80;26.90;;;;;;492970;241;1201;-76
2022/01/15 02:43:47;;;;;;;;;;;19.70;26.90;;;;;;492930;241;951;-76
2022/01/15 02:45:54;;;;;;;;;;;19.80;27.00;;;;;;492836;242;1428;-76
2022/01/15 02:48:02;;;;;;;;;;;20.00;26.70;;;;;;492684;242;1491;-76
2022/01/15 02:50:04;;;;;;;;;;;20.10;26.60;;;;;;492923;241;982;-76
2022/01/15 02:52:05;;;;;;;;;;;20.00;26.60;;;;;;492868;242;1270;-76
2022/01/15 02:54:06;;;;;;;;;;;20.00;26.70;;;;;;492946;241;960;-76
2022/01/15 02:56:08;;;;;;;;;;;20.00;26.70;;;;;;492871;242;1211;-76
2022/01/15 02:58:09;;;;;;;;;;;19.90;26.70;;;;;;492943;241;2175;-76
2022/01/15 03:00:10;;;;;;;;;;;19.80;26.70;;;;;;492924;242;1058;-76
2022/01/15 03:02:12;;;;;;;;;;;20.20;26.60;;;;;;492965;241;1158;-76
2022/01/15 03:04:13;;;;;;;;;;;19.90;26.60;;;;;;492942;241;994;-76
2022/01/15 03:06:14;;;;;;;;;;;19.90;26.70;;;;;;492791;242;1285;-76
2022/01/15 03:08:16;;;;;;;;;;;20.10;26.60;;;;;;492906;242;965;-76
2022/01/15 03:10:17;;;;;;;;;;;20.10;26.50;;;;;;492871;242;1120;-76
2022/01/15 03:12:18;;;;;;;;;;;20.00;26.50;;;;;;492823;242;1079;-76
2022/01/15 03:14:20;;;;;;;;;;;19.90;26.60;;;;;;492918;241;946;-76
2022/01/15 03:16:21;;;;;;;;;;;19.80;26.70;;;;;;492821;241;1130;-75
2022/01/15 03:18:22;;;;;;;;;;;19.80;26.70;;;;;;492845;242;2187;-76
2022/01/15 03:20:23;;;;;;;;;;;19.80;26.60;;;;;;492842;242;947;-76
2022/01/15 03:22:25;;;;;;;;;;;19.80;26.70;;;;;;492734;242;1106;-76
2022/01/15 03:24:26;;;;;;;;;;;19.80;26.60;;;;;;492971;242;1081;-76
2022/01/15 03:26:27;;;;;;;;;;;19.90;26.60;;;;;;492787;242;1188;-76
2022/01/15 03:28:29;;;;;;;;;;;19.90;26.50;;;;;;492886;241;1058;-76
2022/01/15 03:30:30;;;;;;;;;;;20.10;26.30;;;;;;492858;242;948;-76
2022/01/15 03:32:32;;;;;;;;;;;20.00;26.30;;;;;;492920;242;1268;-76
2022/01/15 03:34:33;;;;;;;;;;;19.80;26.40;;;;;;492927;241;994;-76
2022/01/15 03:36:35;;;;;;;;;;;19.90;26.50;;;;;;492855;242;1163;-76
2022/01/15 03:38:36;;;;;;;;;;;19.80;26.60;;;;;;492903;241;2136;-76
2022/01/15 03:40:37;;;;;;;;;;;19.90;26.50;;;;;;492885;242;1147;-76
2022/01/15 03:42:39;;;;;;;;;;;19.70;26.60;;;;;;492842;241;1063;-76
2022/01/15 03:44:40;;;;;;;;;;;19.60;26.70;;;;;;492864;242;1199;-76
2022/01/15 03:46:41;;;;;;;;;;;19.70;26.60;;;;;;492797;241;1185;-76
2022/01/15 03:48:43;;;;;;;;;;;19.80;26.50;;;;;;492907;242;1126;-76
2022/01/15 03:50:44;;;;;;;;;;;20.10;26.30;;;;;;492872;241;1101;-76
2022/01/15 03:52:45;;;;;;;;;;;20.00;26.20;;;;;;492874;241;1185;-76
2022/01/15 03:54:47;;;;;;;;;;;20.10;26.20;;;;;;492846;242;1115;-76
2022/01/15 03:56:48;;;;;;;;;;;19.80;26.30;;;;;;492765;242;1198;-76
2022/01/15 03:58:49;;;;;;;;;;;19.70;26.40;;;;;;492866;242;2108;-76
2022/01/15 04:00:50;;;;;;;;;;;19.70;26.50;;;;;;492841;242;1190;-76
2022/01/15 04:02:52;;;;;;;;;;;19.70;26.40;;;;;;492891;242;1527;-76
2022/01/15 04:04:53;;;;;;;;;;;19.80;26.40;;;;;;492931;241;963;-76
2022/01/15 04:06:54;;;;;;;;;;;19.80;26.40;;;;;;492900;242;1206;-76
2022/01/15 04:08:56;;;;;;;;;;;19.80;26.30;;;;;;492919;242;971;-76
2022/01/15 04:10:57;;;;;;;;;;;20.20;26.20;;;;;;492886;241;1297;-76
2022/01/15 04:12:58;;;;;;;;;;;20.10;26.00;;;;;;493067;241;1080;-76
2022/01/15 04:15:00;;;;;;;;;;;19.80;26.20;;;;;;492952;242;962;-76
2022/01/15 04:17:01;;;;;;;;;;;19.80;26.40;;;;;;492872;241;1214;-76
2022/01/15 04:19:03;;;;;;;;;;;19.60;26.40;;;;;;492884;242;2176;-76
2022/01/15 04:21:04;;;;;;;;;;;19.60;26.50;;;;;;492877;241;1179;-76
2022/01/15 04:23:05;;;;;;;;;;;19.80;26.50;;;;;;492978;241;1112;-76
2022/01/15 04:25:06;;;;;;;;;;;19.90;26.30;;;;;;492867;242;932;-76
2022/01/15 04:27:08;;;;;;;;;;;20.10;26.20;;;;;;492786;242;1120;-76
2022/01/15 04:29:09;;;;;;;;;;;19.90;26.10;;;;;;492854;242;968;-75
2022/01/15 04:31:11;;;;;;;;;;;19.90;26.10;;;;;;492815;242;1222;-76
2022/01/15 04:33:12;;;;;;;;;;;19.90;26.20;;;;;;492901;242;1107;-76
2022/01/15 04:35:13;;;;;;;;;;;20.00;26.20;;;;;;492909;242;939;-76
2022/01/15 04:37:18;;;;;;;;;;;19.80;26.20;;;;;;492844;241;1080;-76
2022/01/15 04:39:16;;;;;;;;;;;19.70;26.20;;;;;;492652;242;2187;-76
2022/01/15 04:41:17;;;;;;;;;;;19.70;26.30;;;;;;492830;242;1095;-76
2022/01/15 04:43:18;;;;;;;;;;;19.80;26.30;;;;;;492851;241;955;-76
2022/01/15 04:45:20;;;;;;;;;;;20.00;26.10;;;;;;492936;241;1038;-76
2022/01/15 04:47:21;;;;;;;;;;;20.00;26.00;;;;;;492877;242;1114;-76
2022/01/15 04:49:22;;;;;;;;;;;19.90;26.10;;;;;;492804;241;1097;-76
2022/01/15 04:51:24;;;;;;;;;;;20.00;26.10;;;;;;492880;241;1220;-76
2022/01/15 04:53:25;;;;;;;;;;;19.90;26.10;;;;;;492868;242;1086;-76
2022/01/15 04:55:26;;;;;;;;;;;19.80;26.20;;;;;;492881;241;976;-76
2022/01/15 04:57:28;;;;;;;;;;;19.90;26.20;;;;;;492818;242;1144;-76
2022/01/15 04:59:29;;;;;;;;;;;19.80;26.20;;;;;;492872;242;2204;-76
2022/01/15 05:01:30;;;;;;;;;;;19.90;26.20;;;;;;492809;242;1223;-76
2022/01/15 05:03:32;;;;;;;;;;;20.10;26.10;;;;;;492928;242;1114;-76
2022/01/15 05:05:33;;;;;;;;;;;20.10;26.00;;;;;;492924;242;1156;-76
2022/01/15 05:07:34;;;;;;;;;;;20.00;26.10;;;;;;492953;241;1065;-76
2022/01/15 05:09:36;;;;;;;;;;;20.00;26.00;;;;;;492875;242;1089;-76
2022/01/15 05:11:45;;;;;;;;;;;20.10;26.00;;;;;;492871;241;1282;-76
2022/01/15 05:13:45;;;;;;;;;;;20.20;26.00;;;;;;492778;242;1539;-76
2022/01/15 05:15:47;;;;;;;;;;;20.10;26.00;;;;;;492855;241;934;-76
2022/01/15 05:17:48;;;;;;;;;;;20.00;26.00;;;;;;492877;242;2120;-76
2022/01/15 05:19:49;;;;;;;;;;;20.20;26.00;;;;;;492845;242;1042;-76
2022/01/15 05:21:52;;;;;;;;;;;20.10;26.10;;;;;;492826;241;1309;-76
2022/01/15 05:23:52;;;;;;;;;;;20.10;26.10;;;;;;492803;242;1387;-76
2022/01/15 05:25:53;;;;;;;;;;;19.90;26.20;;;;;;492908;242;934;-76
2022/01/15 05:27:55;;;;;;;;;;;20.20;26.20;;;;;;492834;241;1198;-76
2022/01/15 05:29:56;;;;;;;;;;;20.30;26.00;;;;;;492844;242;1039;-76
2022/01/15 05:31:57;;;;;;;;;;;20.50;26.00;;;;;;492793;241;1296;-76
2022/01/15 05:33:59;;;;;;;;;;;20.60;25.90;;;;;;492910;241;1026;-76
2022/01/15 05:36:00;;;;;;;;;;;20.80;25.70;;;;;;492891;241;1023;-76
2022/01/15 05:38:01;;;;;;;;;;;20.40;26.10;;;;;;492837;242;2183;-76
2022/01/15 05:40:03;;;;;;;;;;;20.20;26.20;;;;;;493119;241;1066;-76
2022/01/15 05:42:04;;;;;;;;;;;20.20;26.40;;;;;;492876;242;1171;-76
2022/01/15 05:44:05;;;;;;;;;;;20.30;26.30;;;;;;492900;242;1062;-76
2022/01/15 05:46:07;;;;;;;;;;;20.10;26.50;;;;;;492829;241;1147;-76
2022/01/15 05:48:08;;;;;;;;;;;20.10;26.50;;;;;;492889;241;1057;-76
2022/01/15 05:50:09;;;;;;;;;;;20.20;26.60;;;;;;492976;241;1000;-76
2022/01/15 05:52:11;;;;;;;;;;;20.30;26.60;;;;;;492854;242;1085;-76
2022/01/15 05:54:13;;;;;;;;;;;20.30;26.50;;;;;;492897;242;965;-76
2022/01/15 05:56:13;;;;;;;;;;;20.20;26.60;;;;;;492941;242;1306;-76
2022/01/15 05:58:15;;;;;;;;;;;20.40;26.60;;;;;;492898;242;2187;-76
2022/01/15 06:00:16;;;;;;;;;;;20.20;26.70;;;;;;492926;242;948;-76
2022/01/15 06:02:17;;;;;;;;;;;20.10;26.80;;;;;;492873;242;1108;-76
2022/01/15 06:04:19;;;;;;;;;;;20.00;26.90;;;;;;492904;241;968;-76
2022/01/15 06:06:20;;;;;;;;;;;20.10;26.90;;;;;;492788;242;1136;-76
2022/01/15 06:08:21;;;;;;;;;;;19.90;27.00;;;;;;492887;241;1078;-76
2022/01/15 06:10:23;;;;;;;;;;;20.00;27.10;;;;;;492921;242;918;-76
2022/01/15 06:12:29;;;;;;;;;;;20.10;27.00;;;;;;492829;242;1120;-76
2022/01/15 06:14:25;;;;;;;;;;;20.10;27.00;;;;;;492588;242;1401;-76
2022/01/15 06:16:27;;;;;;;;;;;20.40;26.80;;;;;;492848;242;1215;-76
2022/01/15 06:18:28;;;;;;;;;;;20.30;26.80;;;;;;492880;241;2195;-76
2022/01/15 06:20:29;;;;;;;;;;;20.20;27.10;;;;;;492897;242;1140;-76
2022/01/15 06:22:31;;;;;;;;;;;20.10;27.20;;;;;;492844;242;1190;-76
2022/01/15 06:24:32;;;;;;;;;;;20.00;27.20;;;;;;492909;242;937;-76
2022/01/15 06:26:33;;;;;;;;;;;20.00;27.20;;;;;;492995;241;1221;-76
2022/01/15 06:28:35;;;;;;;;;;;20.10;27.30;;;;;;492964;242;1171;-76
2022/01/15 06:30:36;;;;;;;;;;;20.10;27.30;;;;;;492982;241;1157;-76
2022/01/15 06:32:37;;;;;;;;;;;20.20;27.30;;;;;;492911;241;1015;-76
2022/01/15 06:34:39;;;;;;;;;;;20.20;27.20;;;;;;492894;242;983;-76
2022/01/15 06:36:40;;;;;;;;;;;20.10;27.30;;;;;;492815;241;1133;-76
2022/01/15 06:38:41;;;;;;;;;;;20.10;27.30;;;;;;492861;242;2120;-76
2022/01/15 06:40:43;;;;;;;;;;;20.10;27.30;;;;;;492971;241;925;-76
2022/01/15 06:42:44;;;;;;;;;;;20.30;27.40;;;;;;492891;242;1104;-76
2022/01/15 06:44:45;;;;;;;;;;;20.20;27.30;;;;;;492869;242;955;-76
2022/01/15 06:46:46;;;;;;;;;;;20.20;27.30;;;;;;492765;242;1215;-76
2022/01/15 06:48:48;;;;;;;;;;;20.30;27.40;;;;;;492911;241;1069;-76
2022/01/15 06:50:49;;;;;;;;;;;20.30;27.40;;;;;;492872;242;948;-76
2022/01/15 06:52:50;;;;;;;;;;;20.10;27.50;;;;;;492848;242;1116;-76
2022/01/15 06:54:52;;;;;;;;;;;20.10;27.60;;;;;;493089;241;946;-76
2022/01/15 06:56:53;;;;;;;;;;;20.00;27.70;;;;;;492881;242;1343;-76
2022/01/15 06:58:54;;;;;;;;;;;20.00;27.70;;;;;;492934;241;2140;-76
2022/01/15 07:00:56;;;;;;;;;;;20.30;27.60;;;;;;492808;242;1110;-75
2022/01/15 07:03:00;;;;;;;;;;;20.20;27.50;;;;;;492775;242;973;-76
2022/01/15 07:05:00;;;;;;;;;;;20.50;27.40;;;;;;492874;241;1517;-76
2022/01/15 07:07:01;;;;;;;;;;;20.80;27.20;;;;;;492863;242;1110;-76
2022/01/15 07:09:03;;;;;;;;;;;20.20;27.50;;;;;;492947;242;1100;-76
2022/01/15 07:11:03;;;;;;;;;;;19.80;27.90;;;;;;492800;242;1035;-76
2022/01/15 07:13:05;;;;;;;;;;;19.80;28.10;;;;;;492756;242;1263;-76
2022/01/15 07:15:06;;;;;;;;;;;19.80;28.20;;;;;;492877;242;961;-76
2022/01/15 07:17:09;;;;;;;;;;;19.90;28.00;;;;;;492879;242;1223;-76
2022/01/15 07:19:09;;;;;;;;;;;19.90;28.00;;;;;;492778;242;2203;-76
2022/01/15 07:21:10;;;;;;;;;;;20.10;27.90;;;;;;492822;242;953;-76
2022/01/15 07:23:12;;;;;;;;;;;20.00;28.00;;;;;;492811;242;1111;-76
2022/01/15 07:25:13;;;;;;;;;;;20.10;28.00;;;;;;492914;241;960;-76
2022/01/15 07:27:14;;;;;;;;;;;20.00;28.10;;;;;;492906;242;1391;-76
2022/01/15 07:29:16;;;;;;;;;;;19.90;28.20;;;;;;493017;242;1138;-76
2022/01/15 07:31:17;;;;;;;;;;;19.80;28.30;;;;;;492896;241;1037;-76
2022/01/15 07:33:18;;;;;;;;;;;20.20;28.00;;;;;;492866;242;1162;-76
2022/01/15 07:35:19;;;;;;;;;;;20.00;28.10;;;;;;492791;241;1043;-76
2022/01/15 07:37:21;;;;;;;;;;;20.00;28.20;;;;;;492677;242;1210;-76
2022/01/15 07:39:22;;;;;;;;;;;19.90;28.30;;;;;;492767;242;2195;-76
2022/01/15 07:41:23;;;;;;;;;;;20.10;28.30;;;;;;492747;242;1160;-76
2022/01/15 07:43:26;;;;;;;;;;;20.20;28.00;;;;;;492769;242;1124;-76
2022/01/15 07:45:26;;;;;;;;;;;20.10;28.10;;;;;;492869;241;1463;-76
2022/01/15 07:47:28;;;;;;;;;;;20.10;28.20;;;;;;492735;242;1084;-76
2022/01/15 07:49:29;;;;;;;;;;;20.30;28.10;;;;;;492813;241;1093;-76
2022/01/15 07:51:30;;;;;;;;;;;20.60;27.90;;;;;;492741;241;1250;-76
2022/01/15 07:53:32;;;;;;;;;;;20.60;27.90;;;;;;492759;242;957;-76
2022/01/15 07:55:33;;;;;;;;;;;20.40;27.90;;;;;;492752;241;1197;-76
2022/01/15 07:57:34;;;;;;;;;;;20.20;28.20;;;;;;492706;242;1090;-76
2022/01/15 07:59:36;;;;;;;;;;;20.30;28.20;;;;;;492772;242;2187;-76
2022/01/15 08:01:37;;;;;;;;;;;20.20;28.20;;;;;;492791;242;1280;-76
2022/01/15 08:03:38;;;;;;;;;;;20.10;28.40;;;;;;492800;241;1083;-76
2022/01/15 08:05:40;;;;;;;;;;;19.90;28.50;;;;;;492831;241;992;-76
2022/01/15 08:07:42;;;;;;;;;;;20.00;28.50;;;;;;492742;242;1328;-75
2022/01/15 08:09:42;;;;;;;;;;;20.00;28.50;;;;;;492899;242;1283;-76
2022/01/15 08:11:44;;;;;;;;;;;20.00;28.60;;;;;;492769;242;1061;-76
2022/01/15 08:13:45;;;;;;;;;;;20.00;28.60;;;;;;492754;242;1144;-76
2022/01/15 08:15:46;;;;;;;;;;;19.90;28.70;;;;;;492760;242;1098;-76
2022/01/15 08:17:48;;;;;;;;;;;19.90;28.60;;;;;;492753;241;998;-76
2022/01/15 08:19:49;;;;;;;;;;;19.90;28.70;;;;;;492831;242;2183;-76
2022/01/15 08:21:50;;;;;;;;;;;19.90;28.80;;;;;;492785;241;1182;-76
2022/01/15 08:23:52;;;;;;;;;;;20.00;28.80;;;;;;492876;241;1085;-76
2022/01/15 08:25:53;;;;;;;;;;;19.90;28.80;;;;;;492807;242;975;-76
2022/01/15 08:27:54;;;;;;;;;;;20.00;28.80;;;;;;492784;241;1060;-76
2022/01/15 08:29:56;;;;;;;;;;;19.80;28.90;;;;;;492849;241;1173;-76
2022/01/15 08:31:57;;;;;;;;;;;19.90;28.80;;;;;;492786;241;1031;-76
2022/01/15 08:33:58;;;;;;;;;;;19.80;28.80;;;;;;492847;242;1089;-76
2022/01/15 08:36:00;;;;;;;;;;;19.80;28.90;;;;;;492897;241;1199;-76
2022/01/15 08:38:03;;;;;;;;;;;19.80;28.90;;;;;;492795;242;1046;-76
2022/01/15 08:40:03;;;;;;;;;;;19.80;29.00;;;;;;492829;241;2116;-76
2022/01/15 08:42:07;;;;;;;;;;;19.70;29.00;;;;;;492708;241;1070;-76
2022/01/15 08:44:07;;;;;;;;;;;19.80;29.10;;;;;;492756;242;1512;-76
2022/01/15 08:46:08;;;;;;;;;;;19.80;29.10;;;;;;492715;242;1149;-76
2022/01/15 08:48:10;;;;;;;;;;;19.70;29.10;;;;;;492757;241;1052;-76
2022/01/15 08:50:11;;;;;;;;;;;19.60;29.10;;;;;;492839;242;974;-76
2022/01/15 08:52:12;;;;;;;;;;;19.80;29.10;;;;;;492753;241;1072;-76
2022/01/15 08:54:13;;;;;;;;;;;19.90;29.10;;;;;;492795;241;974;-76
2022/01/15 08:56:15;;;;;;;;;;;19.90;28.90;;;;;;492818;241;984;-76
2022/01/15 08:58:16;;;;;;;;;;;19.80;29.00;;;;;;492765;242;1145;-76
2022/01/15 09:00:17;;;;;;;;;;;20.00;28.90;;;;;;492806;241;2139;-76
2022/01/15 09:02:19;;;;;;;;;;;19.80;29.00;;;;;;492791;242;1092;-76
2022/01/15 09:04:20;;;;;;;;;;;19.90;29.00;;;;;;492813;241;1066;-76
2022/01/15 09:06:21;;;;;;;;;;;19.70;29.10;;;;;;492685;242;1139;-76
2022/01/15 09:08:24;;;;;;;;;;;20.00;28.70;;;;;;492883;241;1062;-76
2022/01/15 09:10:24;;;;;;;;;;;19.90;29.00;;;;;;492776;242;1323;-75
2022/01/15 09:12:25;;;;;;;;;;;19.90;28.90;;;;;;492875;241;1139;-76
2022/01/15 09:14:27;;;;;;;;;;;19.90;29.00;;;;;;492841;242;1238;-76
2022/01/15 09:16:28;;;;;;;;;;;19.90;29.00;;;;;;492705;242;1304;-76
2022/01/15 09:18:30;;;;;;;;;;;19.80;29.00;;;;;;492894;242;1048;-76
2022/01/15 09:20:31;;;;;;;;;;;19.70;29.20;;;;;;492789;241;2120;-77
2022/01/15 09:22:32;;;;;;;;;;;19.80;29.20;;;;;;492823;241;1119;-76
2022/01/15 09:24:34;;;;;;;;;;;19.70;29.20;;;;;;487930;244;997;-76
2022/01/15 09:26:48;;;;;;;;;;;19.80;29.20;;;;;;487888;242;995;-76
2022/01/15 09:31:06;;;;;;;;;;;20.00;29.00;;;;;;492730;242;996;-76
2022/01/15 09:33:07;;;;;;;;;;;20.20;28.90;;;;;;492727;242;1255;-76
2022/01/15 09:35:08;;;;;;;;;;;20.40;28.70;;;;;;492754;241;971;-76
2022/01/15 09:37:10;;;;;;;;;;;20.20;28.80;;;;;;492731;242;1107;-76
2022/01/15 09:39:11;;;;;;;;;;;20.10;28.90;;;;;;492785;242;943;-76
2022/01/15 09:41:12;;;;;;;;;;;20.00;29.00;;;;;;492753;242;1070;-76
2022/01/15 09:43:15;;;;;;;;;;;20.20;28.90;;;;;;492753;241;970;-76
2022/01/15 09:45:15;;;;;;;;;;;20.30;28.80;;;;;;492768;242;1360;-76
2022/01/15 09:47:17;;;;;;;;;;;20.30;28.80;;;;;;492780;241;1085;-76
2022/01/15 09:49:18;;;;;;;;;;;20.40;28.70;;;;;;492714;242;1240;-76
2022/01/15 09:51:19;;;;;;;;;;;20.10;28.90;;;;;;492627;242;1083;-76
2022/01/15 09:53:20;;;;;;;;;;;20.30;28.90;;;;;;492651;242;1109;-76
2022/01/15 09:55:22;;;;;;;;;;;20.00;29.00;;;;;;492825;241;1027;-76
2022/01/15 09:57:23;;;;;;;;;;;20.20;29.00;;;;;;492884;242;1110;-76
2022/01/15 09:59:24;;;;;;;;;;;20.10;28.90;;;;;;491872;241;2174;-76
2022/01/15 10:01:26;;;;;;;;;;;20.10;29.00;;;;;;491772;242;1137;-76
2022/01/15 10:03:27;;;;;;;;;;;20.20;29.00;;;;;;492728;242;1074;-76
2022/01/15 10:05:28;;;;;;;;;;;20.40;28.90;;;;;;492724;242;1151;-76
2022/01/15 10:07:30;;;;;;;;;;;20.50;28.80;;;;;;492699;242;1152;-76
2022/01/15 10:09:31;;;;;;;;;;;20.50;28.60;;;;;;492843;242;1166;-76
2022/01/15 10:11:32;;;;;;;;;;;20.40;28.80;;;;;;492904;241;1206;-76
2022/01/15 10:13:38;;;;;;;;;;;20.30;28.90;;;;;;492864;241;953;-76
2022/01/15 10:15:35;;;;;;;;;;;20.10;29.00;;;;;;492540;242;1400;-76
2022/01/15 10:17:37;;;;;;;;;;;20.00;29.10;;;;;;492830;241;1110;-76
2022/01/15 10:19:38;;;;;;;;;;;20.10;29.20;;;;;;492795;242;2136;-76
2022/01/15 10:21:39;;;;;;;;;;;20.30;29.00;;;;;;492804;241;1281;-76
2022/01/15 10:23:41;;;;;;;;;;;20.40;29.00;;;;;;492802;242;1061;-76
2022/01/15 10:25:42;;;;;;;;;;;20.20;29.00;;;;;;492826;241;950;-76
2022/01/15 10:27:43;;;;;;;;;;;20.40;28.90;;;;;;492943;241;1150;-76
2022/01/15 10:29:45;;;;;;;;;;;20.50;28.90;;;;;;492825;242;1175;-76
2022/01/15 10:31:46;;;;;;;;;;;20.50;28.80;;;;;;492769;241;1236;-76
2022/01/15 10:33:47;;;;;;;;;;;20.40;28.80;;;;;;492813;242;1057;-76
2022/01/15 10:35:49;;;;;;;;;;;20.20;28.90;;;;;;492826;241;1380;-76
2022/01/15 10:37:50;;;;;;;;;;;20.10;29.10;;;;;;492791;242;1109;-76
2022/01/15 10:39:51;;;;;;;;;;;20.10;29.10;;;;;;492832;241;2610;-76
2022/01/15 10:41:53;;;;;;;;;;;20.10;29.20;;;;;;492805;241;1179;-76
2022/01/15 10:43:54;;;;;;;;;;;20.20;29.00;;;;;;492844;242;1209;-76
2022/01/15 10:45:56;;;;;;;;;;;20.20;29.00;;;;;;492767;242;1152;-76
2022/01/15 10:47:57;;;;;;;;;;;20.20;29.10;;;;;;492914;241;1209;-76
2022/01/15 10:49:59;;;;;;;;;;;20.40;28.90;;;;;;492793;242;1346;-76
2022/01/15 10:52:00;;;;;;;;;;;20.30;28.90;;;;;;492728;241;1020;-76
2022/01/15 10:54:01;;;;;;;;;;;20.30;29.10;;;;;;492818;242;1125;-76
2022/01/15 10:56:03;;;;;;;;;;;20.30;29.00;;;;;;492858;241;1232;-76
2022/01/15 10:58:04;;;;;;;;;;;20.20;29.10;;;;;;492787;242;1097;-76
2022/01/15 11:00:05;;;;;;;;;;;20.10;29.10;;;;;;492827;241;2186;-76
2022/01/15 11:02:07;;;;;;;;;;;20.40;29.00;;;;;;492687;241;1405;-76
2022/01/15 11:04:08;;;;;;;;;;;20.40;29.00;;;;;;492837;242;979;-76
2022/01/15 11:06:09;;;;;;;;;;;20.50;29.00;;;;;;492724;241;1116;-76
2022/01/15 11:08:11;;;;;;;;;;;20.40;29.00;;;;;;492880;242;1014;-76
2022/01/15 11:10:12;;;;;;;;;;;20.40;28.90;;;;;;492802;241;1056;-76
2022/01/15 11:12:14;;;;;;;;;;;20.20;29.20;;;;;;492714;241;1134;-76
2022/01/15 11:14:15;;;;;;;;;;;20.00;29.30;;;;;;492778;242;1033;-76
2022/01/15 11:16:16;;;;;;;;;;;20.00;29.40;;;;;;492764;241;1188;-76
2022/01/15 11:18:17;;;;;;;;;;;20.00;29.40;;;;;;492784;242;949;-76
2022/01/15 11:20:19;;;;;;;;;;;20.50;29.10;;;;;;492849;241;2179;-76
2022/01/15 11:22:21;;;;;;;;;;;20.50;29.00;;;;;;492865;242;1135;-76
2022/01/15 11:24:22;;;;;;;;;;;20.60;28.90;;;;;;492846;242;962;-76
2022/01/15 11:26:24;;;;;;;;;;;20.30;29.10;;;;;;492802;241;1145;-76
2022/01/15 11:28:25;;;;;;;;;;;20.10;29.30;;;;;;492827;242;1032;-76
2022/01/15 11:30:26;;;;;;;;;;;20.20;29.40;;;;;;492837;242;1170;-76
2022/01/15 11:32:28;;;;;;;;;;;20.20;29.40;;;;;;492863;241;1140;-76
2022/01/15 11:34:29;;;;;;;;;;;20.30;29.30;;;;;;492884;242;938;-76
2022/01/15 11:36:30;;;;;;;;;;;20.50;29.20;;;;;;492800;241;1184;-76
2022/01/15 11:38:32;;;;;;;;;;;20.40;29.10;;;;;;492824;242;962;-76
2022/01/15 11:40:33;;;;;;;;;;;20.40;29.10;;;;;;492713;242;2191;-76
2022/01/15 11:42:35;;;;;;;;;;;20.50;29.00;;;;;;492656;241;1096;-76
2022/01/15 11:44:36;;;;;;;;;;;20.30;29.20;;;;;;492590;242;1473;-76
2022/01/15 11:46:37;;;;;;;;;;;20.20;29.30;;;;;;492666;242;1307;-76
2022/01/15 11:48:38;;;;;;;;;;;20.50;29.30;;;;;;492737;242;978;-76
2022/01/15 11:50:40;;;;;;;;;;;20.30;29.30;;;;;;492817;242;995;-76
2022/01/15 11:52:41;;;;;;;;;;;20.60;29.20;;;;;;492803;241;1073;-76
2022/01/15 11:54:43;;;;;;;;;;;20.50;29.20;;;;;;492828;241;969;-76
2022/01/15 11:56:46;;;;;;;;;;;20.50;29.20;;;;;;492783;242;1110;-76
2022/01/15 11:58:45;;;;;;;;;;;20.30;29.30;;;;;;492669;242;1831;-76
2022/01/15 12:00:47;;;;;;;;;;;20.30;29.20;;;;;;492761;242;2124;-76
2022/01/15 12:02:48;;;;;;;;;;;20.20;29.40;;;;;;492980;241;1138;-76
2022/01/15 12:04:49;;;;;;;;;;;20.20;29.50;;;;;;492763;242;1008;-76
2022/01/15 12:06:51;;;;;;;;;;;20.30;29.40;;;;;;492715;242;1232;-76
2022/01/15 12:08:52;;;;;;;;;;;20.30;29.40;;;;;;492807;241;991;-76
2022/01/15 12:10:54;;;;;;;;;;;20.20;29.50;;;;;;492803;242;975;-76
2022/01/15 12:12:56;;;;;;;;;;;20.10;29.60;;;;;;492919;242;1447;-76
2022/01/15 12:14:56;;;;;;;;;;;20.10;29.50;;;;;;492871;242;1425;-76